createdAt,value
2018-03-27T00:04:36.631Z,1009.76
2018-03-27T00:09:36.274Z,1009.88
2018-03-27T00:14:36.189Z,1009.83
2018-03-27T00:19:31.005Z,1009.76
2018-03-27T00:24:30.611Z,1009.82
2018-03-27T00:29:25.070Z,1009.82
2018-03-27T00:34:24.231Z,1009.75
2018-03-27T00:39:24.078Z,1009.78
2018-03-27T00:44:23.238Z,1009.74
2018-03-27T00:49:25.192Z,1009.69
2018-03-27T00:54:23.781Z,1009.76
2018-03-27T00:59:18.533Z,1009.71
2018-03-27T01:04:15.218Z,1009.71
2018-03-27T01:09:13.072Z,1009.66
2018-03-27T01:14:08.453Z,1009.66
2018-03-27T01:19:08.341Z,1009.59
2018-03-27T01:24:06.952Z,1009.53
2018-03-27T01:29:02.755Z,1009.50
2018-03-27T01:33:58.131Z,1009.44
2018-03-27T01:38:54.238Z,1009.27
2018-03-27T01:43:54.801Z,1009.32
2018-03-27T01:48:50.535Z,1009.32
2018-03-27T01:53:45.893Z,1009.16
2018-03-27T01:58:46.138Z,1009.06
2018-03-27T02:03:40.719Z,1009.14
2018-03-27T02:08:36.465Z,1009.11
2018-03-27T02:13:34.229Z,1009.08
2018-03-27T02:18:33.219Z,1009.12
2018-03-27T02:23:28.413Z,1009.06
2018-03-27T02:28:23.884Z,1009.06
2018-03-27T02:33:20.688Z,1009.13
2018-03-27T02:38:17.078Z,1009.04
2018-03-27T02:43:12.520Z,1009.05
2018-03-27T02:48:09.318Z,1009.03
2018-03-27T02:53:04.678Z,1008.94
2018-03-27T02:58:04.124Z,1008.98
2018-03-27T03:03:03.294Z,1008.82
2018-03-27T03:08:01.661Z,1008.75
2018-03-27T03:12:56.190Z,1008.80
2018-03-27T03:17:55.696Z,1008.74
2018-03-27T03:22:54.337Z,1008.77
2018-03-27T03:27:53.172Z,1008.90
2018-03-27T03:32:49.799Z,1008.86
2018-03-27T03:37:49.098Z,1008.88
2018-03-27T03:42:48.812Z,1008.87
2018-03-27T03:47:47.483Z,1008.87
2018-03-27T03:52:42.325Z,1008.78
2018-03-27T03:57:42.800Z,1008.82
2018-03-27T04:02:42.321Z,1008.63
2018-03-27T04:07:42.506Z,1008.71
2018-03-27T04:12:36.578Z,1008.68
2018-03-27T04:17:33.397Z,1008.64
2018-03-27T04:22:29.039Z,1008.68
2018-03-27T04:27:29.400Z,1008.61
2018-03-27T04:32:25.763Z,1008.61
2018-03-27T04:37:24.963Z,1008.57
2018-03-27T04:42:20.486Z,1008.53
2018-03-27T04:47:16.110Z,1008.49
2018-03-27T04:52:17.461Z,1008.45
2018-03-27T04:57:16.388Z,1008.49
2018-03-27T05:02:15.146Z,1008.61
2018-03-27T05:07:15.057Z,1008.64
2018-03-27T05:12:09.743Z,1008.51
2018-03-27T05:17:06.143Z,1008.60
2018-03-27T05:22:05.314Z,1008.59
2018-03-27T05:27:00.277Z,1008.49
2018-03-27T05:31:59.976Z,1008.53
2018-03-27T05:36:58.551Z,1008.51
2018-03-27T05:41:57.469Z,1008.59
2018-03-27T05:46:56.289Z,1008.57
2018-03-27T05:51:51.127Z,1008.58
2018-03-27T05:56:51.378Z,1008.54
2018-03-27T06:01:46.749Z,1008.49
2018-03-27T06:06:47.191Z,1008.43
2018-03-27T06:11:42.067Z,1008.40
2018-03-27T06:16:37.808Z,1008.45
2018-03-27T06:21:34.438Z,1008.40
2018-03-27T06:26:30.525Z,1008.35
2018-03-27T06:31:26.626Z,1008.39
2018-03-27T06:36:23.478Z,1008.40
2018-03-27T06:41:23.209Z,1008.32
2018-03-27T06:46:21.786Z,1008.35
2018-03-27T06:51:22.709Z,1008.38
2018-03-27T06:56:18.554Z,1008.42
2018-03-27T07:01:19.208Z,1008.39
2018-03-27T07:06:15.344Z,1008.36
2018-03-27T07:11:16.080Z,1008.34
2018-03-27T07:16:15.052Z,1008.24
2018-03-27T07:21:11.151Z,1008.21
2018-03-27T07:26:11.337Z,1008.25
2018-03-27T07:31:06.199Z,1008.11
2018-03-27T07:36:01.872Z,1008.24
2018-03-27T07:41:02.886Z,1008.19
2018-03-27T07:46:02.543Z,1008.26
2018-03-27T07:50:58.333Z,1008.22
2018-03-27T07:55:54.138Z,1008.17
2018-03-27T08:00:53.949Z,1008.19
2018-03-27T08:05:48.705Z,1008.07
2018-03-27T08:10:46.459Z,1007.96
2018-03-27T08:15:41.748Z,1007.93
2018-03-27T08:20:42.451Z,1007.92
2018-03-27T08:25:42.738Z,1007.87
2018-03-27T08:30:43.373Z,1007.74
2018-03-27T08:35:42.542Z,1007.73
2018-03-27T08:40:41.254Z,1007.70
2018-03-27T08:45:39.428Z,1007.65
2018-03-27T08:50:36.915Z,1007.62
2018-03-27T08:55:33.550Z,1007.60
2018-03-27T09:00:34.434Z,1007.41
2018-03-27T09:05:36.992Z,1007.43
2018-03-27T09:10:37.713Z,1007.47
2018-03-27T09:15:32.776Z,1007.37
2018-03-27T09:20:35.668Z,1007.32
2018-03-27T09:25:35.447Z,1007.19
2018-03-27T09:30:30.752Z,1007.31
2018-03-27T09:35:27.765Z,1007.23
2018-03-27T09:40:28.231Z,1007.18
2018-03-27T09:45:29.757Z,1007.15
2018-03-27T09:50:29.870Z,1007.13
2018-03-27T10:00:40.289Z,1007.29
2018-03-27T10:10:49.227Z,1006.97
2018-03-27T10:15:51.603Z,1007.39
2018-03-27T10:25:52.960Z,1007.01
2018-03-27T10:30:53.553Z,1006.93
2018-03-27T10:35:49.853Z,1006.51
2018-03-27T10:40:50.592Z,1006.26
2018-03-27T10:45:51.704Z,1006.16
2018-03-27T10:50:51.952Z,1006.14
2018-03-27T10:55:51.814Z,1006.06
2018-03-27T11:00:51.654Z,1005.93
2018-03-27T11:05:49.785Z,1005.93
2018-03-27T11:10:48.546Z,1005.76
2018-03-27T11:15:47.966Z,1005.78
2018-03-27T11:20:48.966Z,1005.66
2018-03-27T11:25:44.346Z,1005.56
2018-03-27T11:30:44.486Z,1005.47
2018-03-27T11:35:44.136Z,1005.40
2018-03-27T11:40:44.168Z,1005.22
2018-03-27T11:45:40.165Z,1005.20
2018-03-27T11:50:40.801Z,1004.96
2018-03-27T11:55:43.353Z,1004.90
2018-03-27T12:05:40.010Z,1004.72
2018-03-27T12:10:36.264Z,1004.67
2018-03-27T12:15:36.808Z,1004.62
2018-03-27T12:25:38.892Z,1004.46
2018-03-27T12:30:37.099Z,1004.35
2018-03-27T12:35:32.013Z,1004.33
2018-03-27T12:40:32.178Z,1004.17
2018-03-27T12:45:32.820Z,1004.13
2018-03-27T12:50:33.934Z,1004.10
2018-03-27T12:55:29.648Z,1004.08
2018-03-27T13:00:29.857Z,1004.01
2018-03-27T13:05:30.183Z,1003.96
2018-03-27T13:10:29.748Z,1003.84
2018-03-27T13:15:28.611Z,1003.83
2018-03-27T13:20:28.640Z,1003.77
2018-03-27T13:25:22.911Z,1003.59
2018-03-27T13:30:22.691Z,1003.39
2018-03-27T13:35:22.517Z,1003.37
2018-03-27T13:40:20.068Z,1003.36
2018-03-27T13:45:20.392Z,1003.34
2018-03-27T13:50:19.586Z,1003.17
2018-03-27T13:55:17.867Z,1003.10
2018-03-27T14:00:16.560Z,1003.20
2018-03-27T14:05:11.493Z,1003.11
2018-03-27T14:10:07.308Z,1002.98
2018-03-27T14:15:08.143Z,1002.92
2018-03-27T14:20:03.985Z,1002.83
2018-03-27T14:25:04.444Z,1002.78
2018-03-27T14:29:59.916Z,1002.81
2018-03-27T14:34:59.619Z,1002.63
2018-03-27T14:39:59.572Z,1002.47
2018-03-27T14:44:55.160Z,1002.41
2018-03-27T14:49:50.705Z,1002.45
2018-03-27T14:54:47.268Z,1002.29
2018-03-27T14:59:43.967Z,1002.31
2018-03-27T15:04:43.124Z,1002.22
2018-03-27T15:09:43.423Z,1002.14
2018-03-27T15:14:42.327Z,1002.06
2018-03-27T15:19:41.060Z,1002.14
2018-03-27T15:24:39.673Z,1002.00
2018-03-27T15:29:38.626Z,1001.94
2018-03-27T15:34:34.954Z,1001.95
2018-03-27T15:39:31.700Z,1001.88
2018-03-27T15:44:31.034Z,1001.78
2018-03-27T15:49:30.846Z,1001.78
2018-03-27T15:54:29.350Z,1001.75
2018-03-27T15:59:28.461Z,1001.68
2018-03-27T16:04:25.036Z,1001.69
2018-03-27T16:09:21.479Z,1001.58
2018-03-27T16:14:22.375Z,1001.56
2018-03-27T16:19:22.026Z,1001.51
2018-03-27T16:24:16.762Z,1001.48
2018-03-27T16:29:16.281Z,1001.44
2018-03-27T16:34:15.777Z,1001.45
2018-03-27T16:39:11.359Z,1001.36
2018-03-27T16:44:06.677Z,1001.26
2018-03-27T16:49:03.095Z,1001.30
2018-03-27T16:54:03.961Z,1001.19
2018-03-27T16:59:03.372Z,1001.16
2018-03-27T17:03:57.827Z,1001.14
2018-03-27T17:08:53.498Z,1001.15
2018-03-27T17:13:49.622Z,1001.07
2018-03-27T17:18:49.617Z,1001.14
2018-03-27T17:23:44.618Z,1001.06
2018-03-27T17:28:40.216Z,1001.02
2018-03-27T17:33:36.060Z,1001.01
2018-03-27T17:38:32.726Z,1000.89
2018-03-27T17:43:28.338Z,1000.85
2018-03-27T17:48:28.678Z,1000.83
2018-03-27T17:53:28.296Z,1000.83
2018-03-27T17:58:27.065Z,1000.87
2018-03-27T18:03:21.791Z,1000.79
2018-03-27T18:08:21.690Z,1000.83
2018-03-27T18:13:16.494Z,1000.74
2018-03-27T18:18:13.358Z,1000.76
2018-03-27T18:23:08.760Z,1000.67
2018-03-27T18:28:04.459Z,1000.62
2018-03-27T18:33:01.523Z,1000.60
2018-03-27T18:38:02.624Z,1000.57
2018-03-27T18:42:57.508Z,1000.64
2018-03-27T18:47:53.146Z,1000.60
2018-03-27T18:52:49.888Z,1000.62
2018-03-27T18:57:49.454Z,1000.56
2018-03-27T19:02:44.684Z,1000.58
2018-03-27T19:07:44.720Z,1000.55
2018-03-27T19:12:44.578Z,1000.42
2018-03-27T19:17:40.313Z,1000.55
2018-03-27T19:22:35.665Z,1000.49
2018-03-27T19:27:35.361Z,1000.32
2018-03-27T19:32:35.647Z,1000.27
2018-03-27T19:37:34.271Z,1000.21
2018-03-27T19:42:29.052Z,1000.17
2018-03-27T19:47:28.525Z,1000.03
2018-03-27T19:52:28.930Z,1000.03
2018-03-27T19:57:24.332Z,1000.13
2018-03-27T20:02:23.882Z,1000.03
2018-03-27T20:07:18.423Z,999.94
2018-03-27T20:12:18.072Z,999.96
2018-03-27T20:17:13.212Z,999.95
2018-03-27T20:22:13.654Z,999.78
2018-03-27T20:27:12.384Z,999.79
2018-03-27T20:32:06.944Z,999.72
2018-03-27T20:37:02.655Z,999.62
2018-03-27T20:41:58.289Z,999.52
2018-03-27T20:46:53.884Z,999.50
2018-03-27T20:51:53.288Z,999.45
2018-03-27T20:56:53.434Z,999.31
2018-03-27T21:01:52.129Z,999.34
2018-03-27T21:06:47.061Z,999.40
2018-03-27T21:11:43.295Z,999.37
2018-03-27T21:16:40.204Z,999.16
2018-03-27T21:21:36.623Z,999.16
2018-03-27T21:26:36.011Z,999.14
2018-03-27T21:31:34.565Z,999.09
2018-03-27T21:36:34.165Z,998.97
2018-03-27T21:41:32.793Z,998.99
2018-03-27T21:46:27.627Z,998.96
2018-03-27T21:51:23.468Z,998.83
2018-03-27T21:56:24.035Z,998.98
2018-03-27T22:01:19.396Z,998.94
2018-03-27T22:06:17.766Z,998.88
2018-03-27T22:11:12.956Z,998.85
2018-03-27T22:16:13.574Z,998.85
2018-03-27T22:21:09.331Z,998.76
2018-03-27T22:26:05.037Z,998.85
2018-03-27T22:31:01.797Z,998.71
2018-03-27T22:36:01.106Z,998.72
2018-03-27T22:40:56.293Z,998.76
2018-03-27T22:45:56.142Z,998.70
2018-03-27T22:50:55.105Z,998.66
2018-03-27T22:55:51.003Z,998.58
2018-03-27T23:00:46.588Z,998.59
2018-03-27T23:05:43.848Z,998.53
2018-03-27T23:10:43.351Z,998.44
2018-03-27T23:15:38.216Z,998.47
2018-03-27T23:20:33.910Z,998.42
2018-03-27T23:25:30.762Z,998.40
2018-03-27T23:30:30.346Z,998.49
2018-03-27T23:35:31.150Z,998.52
2018-03-27T23:40:26.958Z,998.46
2018-03-27T23:50:35.616Z,998.46
2018-03-27T23:55:29.410Z,998.37
